Date,TemperatureHighF,TemperatureAvgF,TemperatureLowF,DewpointHighF,DewpointAvgF,DewpointLowF,HumidityHigh,HumidityAvg,HumidityLow,PressureMaxIn,PressureMinIn,WindSpeedMaxMPH,WindSpeedAvgMPH,GustSpeedMaxMPH,PrecipitationSumIn
2013-9-1,87.3,77.6,71.4,73.8,71.3,69.3,96,82,58,29.83,29.72,7,2,0,0.02
2013-9-2,85.6,74.7,63.7,69.9,66.2,61.3,98,77,50,29.91,29.81,4,1,0,0.00
2013-9-3,86.5,71.2,57.0,64.9,60.9,55.9,97,74,39,29.98,29.90,5,1,0,0.00
2013-9-4,87.6,71.6,57.0,66.2,61.5,56.7,99,74,41,30.07,29.95,5,1,0,0.00
2013-9-5,88.2,72.0,58.8,66.2,62.4,57.9,99,75,42,30.11,30.02,5,1,0,0.00
2013-9-6,89.4,77.1,58.6,68.5,64.9,58.3,99,69,42,30.06,29.93,5,2,0,0.00
2013-9-7,93.6,78.4,64.6,73.4,67.6,63.0,96,73,42,29.98,29.86,5,2,0,0.00
2013-9-8,94.8,79.1,65.7,74.2,69.0,64.8,98,75,42,29.90,29.81,3,1,0,0.00
2013-9-9,93.9,78.3,65.8,70.8,67.7,64.5,98,74,41,29.94,29.85,8,1,0,0.00
2013-9-10,94.5,79.0,64.8,69.9,66.2,60.4,97,69,34,30.06,29.91,7,2,0,0.00
2013-9-11,91.9,77.6,66.0,72.8,68.4,65.1,98,76,46,30.07,29.96,4,1,0,0.00
2013-9-12,92.1,77.3,65.7,72.4,68.8,64.8,99,77,51,30.02,29.91,4,1,0,0.00
2013-9-13,85.3,71.6,58.1,67.9,56.6,51.1,86,62,34,30.01,29.90,5,2,0,0.00
2013-9-14,81.7,65.2,51.8,59.8,53.7,49.9,97,70,38,29.99,29.89,9,2,0,0.00
2013-9-15,88.7,72.8,58.1,71.3,60.2,52.0,84,67,42,29.96,29.90,7,2,0,0.00
2013-9-16,79.2,70.4,65.7,71.6,67.3,63.5,98,90,76,30.11,29.96,4,1,0,0.32
2013-9-17,81.7,72.6,66.0,71.0,67.3,64.8,96,84,65,30.05,29.92,8,2,0,0.00
2013-9-18,88.9,77.1,70.0,71.7,67.4,64.4,89,73,52,29.95,29.85,7,3,0,0.00
2013-9-19,91.8,78.0,70.3,71.0,68.1,64.5,95,73,47,29.91,29.78,9,3,0,0.13
2013-9-20,70.7,65.9,55.8,69.2,63.7,54.1,99,93,68,29.89,29.83,7,1,0,2.12
2013-9-21,74.7,57.1,46.6,56.7,50.9,46.3,99,83,41,29.92,29.81,10,1,0,0.00
2013-9-22,77.2,60.2,45.1,56.0,50.9,44.0,99,75,42,29.89,29.76,6,1,0,0.00
2013-9-23,79.2,63.2,48.6,59.7,54.0,47.2,99,75,45,29.83,29.69,8,2,0,0.00
2013-9-24,77.9,66.6,57.9,60.0,57.7,55.6,94,75,52,29.79,29.73,7,2,0,0.01
2013-9-25,84.0,64.8,51.6,63.7,58.4,50.8,98,82,47,29.79,29.71,4,1,0,0.00
2013-9-26,86.0,69.9,57.2,65.4,60.7,56.1,98,76,47,29.86,29.74,7,2,0,0.00
2013-9-27,84.9,72.1,61.7,66.3,62.0,59.4,94,72,48,29.92,29.81,11,3,0,0.00
2013-9-28,80.8,69.6,61.0,68.4,64.0,60.7,99,83,65,29.94,29.80,7,3,0,1.68
2013-9-29,80.2,64.0,55.0,60.5,57.5,54.4,99,82,42,29.96,29.83,5,1,0,0.01
2013-9-30,80.8,67.7,56.5,67.2,62.2,55.9,99,85,58,29.84,29.75,6,2,0,0.00